[Date Prev][Date Next][Thread Prev][Thread Next][Date Index][Thread Index]

[Support #RZI-325369]: Re: New LDM server for EMWIN-only feed



Gilbert,

> I think I found the problem with my METARs not showing up. These didn't
> show up in my database:
> 
> 963 ^M^M
> SPUS70 KWBC 151926^M^M
> SPECI^M^M
> KBPK 151923Z AUTO VRB06G16KT 1/2SM +TSRA FG BKN010 OVC045 18/17^M^M
> A3003 RMK AO2 LTG DSNT ALQDS TSB1855RAB1858 P0042=^M^M
> KMLC 151923Z AUTO 29014G19KT 10SM FEW075 28/17 A3003 RMK AO2 LTG^M^M
> DSNT NE-SE TSE17=^M^M
> KOKC 151923Z 34019G28KT 10SM SCT009 OVC016 18/13 A3015 RMK AO2 PK^M^M
> WND 33030/1913=^M^M
> KVIH 151923Z AUTO 08004KT 3SM -RA BR OVC025 18/17 A2994 RMK AO2^M^M
> LTG DSNT NE-S TSE04 P0005=^M^M
> KLAF 151923Z 00000KT 10SM -RA FEW031 24/18 A2981 RMK AO2 LTG DSNT^M^M
> W AND NW TSE17 P0000=^M^M
> KTMB 151923Z 08013KT 4SM -RA FEW025 SCT046 BKN060 23/21 A3004 RMK^M^M
> AO2 LTG DSNT E TSB1857E17RAB1854 P0010=^M^M
> KARB 151924Z AUTO 22034G49KT 1 1/2SM +RA FEW017 BKN060 22/17 A2977^M^M
> RMK AO2 PK WND 22049/1924 RAB19 P0011 TSNO=^M^M
> KASG 151916Z 06007KT 2SM TS-RA BR OVC019 21/18 A3001=^M^M
> KIOW 151924Z AUTO 32015G19KT 10SM -RA OVC016 14/12 A2997 RMK AO2^M^M
> P0001=^M^M
> KOVS 151924Z AUTO 28004KT 3SM -RA BR BKN013 OVC019 16/13 A2989 RMK^M^M
> AO2 P0005=^M^M
> KSLK 151924Z AUTO 22009KT 2SM RA BR BKN022 BKN042 OVC065 16/13^M^M
> A2972 RMK AO2 P0005=^M^M
> PAPB 151924Z AUTO 01021G28KT 6SM -SN BR FEW010 SCT013 BKN055^M^M
> 00/M02 A2996 RMK AO2 PK WND 01029/1856 P0000 TSNO=^M^M
> ^M^M
> ^C^A^M^M
> 
> None of these METARs showed up in my database generated by pqsurf. SPECIs
> in clusters may somehow fool pqsurf? Can you insert it into your LDM and
> see what happens?

Before I could use the data-product, I would first have to transform it
into one that conforms to the WMO Bulletin conventions.  This means 
replacing all the "^M", "^A", and "^C" strings with the relevant control
characters.  Also, the newline characters might have to be removed (I
don't know).

Instead of my stumbling around trying to get it into the right
format, would you please send me the bulletin as an attachment and
already in the correct format.

Regards,
Steve Emmerson

Ticket Details
===================
Ticket ID: RZI-325369
Department: Support LDM
Priority: Normal
Status: On Hold


NOTE: All email exchanges with Unidata User Support are recorded in the Unidata inquiry tracking system and then made publicly available through the web. If you do not want to have your interactions made available in this way, you must let us know in each email you send to us.